sensor_id;sensor_type;location;lat;lon;timestamp;P1;durP1;ratioP1;P2;durP2;ratioP2
57055;SDS011;42945;51.718;5.324;2023-05-20T00:00:08;8.82;;;3.47;;
57055;SDS011;42945;51.718;5.324;2023-05-20T00:05:57;8.93;;;3.83;;
57055;SDS011;42945;51.718;5.324;2023-05-20T00:11:45;7.97;;;4.00;;
57055;SDS011;42945;51.718;5.324;2023-05-20T00:17:34;9.55;;;3.88;;
57055;SDS011;42945;51.718;5.324;2023-05-20T00:23:22;10.15;;;4.47;;
57055;SDS011;42945;51.718;5.324;2023-05-20T00:29:11;12.63;;;4.60;;
57055;SDS011;42945;51.718;5.324;2023-05-20T00:35:00;11.63;;;4.38;;
57055;SDS011;42945;51.718;5.324;2023-05-20T00:44:43;10.43;;;4.80;;
57055;SDS011;42945;51.718;5.324;2023-05-20T00:50:32;9.93;;;4.88;;
57055;SDS011;42945;51.718;5.324;2023-05-20T00:56:20;12.88;;;4.78;;
57055;SDS011;42945;51.718;5.324;2023-05-20T01:02:08;14.30;;;5.25;;
57055;SDS011;42945;51.718;5.324;2023-05-20T01:07:57;14.27;;;5.03;;
57055;SDS011;42945;51.718;5.324;2023-05-20T01:13:46;10.98;;;5.00;;
57055;SDS011;42945;51.718;5.324;2023-05-20T01:19:39;12.52;;;4.70;;
57055;SDS011;42945;51.718;5.324;2023-05-20T01:25:32;10.10;;;4.43;;
57055;SDS011;42945;51.718;5.324;2023-05-20T01:31:20;15.88;;;5.22;;
57055;SDS011;42945;51.718;5.324;2023-05-20T01:37:12;15.88;;;4.70;;
57055;SDS011;42945;51.718;5.324;2023-05-20T01:46:55;16.48;;;5.13;;
57055;SDS011;42945;51.718;5.324;2023-05-20T01:52:43;15.25;;;4.65;;
57055;SDS011;42945;51.718;5.324;2023-05-20T01:58:30;11.35;;;4.93;;
57055;SDS011;42945;51.718;5.324;2023-05-20T02:04:18;12.98;;;5.10;;
57055;SDS011;42945;51.718;5.324;2023-05-20T02:10:07;14.60;;;5.60;;
57055;SDS011;42945;51.718;5.324;2023-05-20T02:15:56;11.07;;;5.13;;
57055;SDS011;42945;51.718;5.324;2023-05-20T02:21:44;11.65;;;4.97;;
57055;SDS011;42945;51.718;5.324;2023-05-20T02:27:34;14.35;;;5.78;;
57055;SDS011;42945;51.718;5.324;2023-05-20T02:33:22;10.85;;;5.25;;
57055;SDS011;42945;51.718;5.324;2023-05-20T02:39:09;12.55;;;5.70;;
57055;SDS011;42945;51.718;5.324;2023-05-20T02:48:52;15.77;;;5.82;;
57055;SDS011;42945;51.718;5.324;2023-05-20T02:54:40;13.73;;;5.20;;
57055;SDS011;42945;51.718;5.324;2023-05-20T03:00:28;12.25;;;5.70;;
57055;SDS011;42945;51.718;5.324;2023-05-20T03:06:17;16.25;;;6.10;;
57055;SDS011;42945;51.718;5.324;2023-05-20T03:12:07;13.02;;;5.72;;
57055;SDS011;42945;51.718;5.324;2023-05-20T03:17:55;17.33;;;5.53;;
57055;SDS011;42945;51.718;5.324;2023-05-20T03:23:42;11.88;;;6.03;;
57055;SDS011;42945;51.718;5.324;2023-05-20T03:29:30;11.32;;;5.40;;
57055;SDS011;42945;51.718;5.324;2023-05-20T03:35:19;20.38;;;5.90;;
57055;SDS011;42945;51.718;5.324;2023-05-20T03:41:07;14.05;;;5.47;;
57055;SDS011;42945;51.718;5.324;2023-05-20T03:50:52;15.32;;;5.28;;
57055;SDS011;42945;51.718;5.324;2023-05-20T03:56:40;12.90;;;5.35;;
57055;SDS011;42945;51.718;5.324;2023-05-20T04:02:28;13.48;;;5.70;;
57055;SDS011;42945;51.718;5.324;2023-05-20T04:08:17;10.98;;;5.32;;
57055;SDS011;42945;51.718;5.324;2023-05-20T04:14:05;13.27;;;5.97;;
57055;SDS011;42945;51.718;5.324;2023-05-20T04:19:54;10.80;;;5.65;;
57055;SDS011;42945;51.718;5.324;2023-05-20T04:25:42;13.00;;;5.43;;
57055;SDS011;42945;51.718;5.324;2023-05-20T04:31:30;12.40;;;5.43;;
57055;SDS011;42945;51.718;5.324;2023-05-20T04:37:18;12.52;;;5.07;;
57055;SDS011;42945;51.718;5.324;2023-05-20T04:43:07;11.48;;;5.30;;
57055;SDS011;42945;51.718;5.324;2023-05-20T04:52:50;10.35;;;5.22;;
57055;SDS011;42945;51.718;5.324;2023-05-20T04:58:37;11.68;;;4.78;;
57055;SDS011;42945;51.718;5.324;2023-05-20T05:04:25;10.00;;;4.63;;
57055;SDS011;42945;51.718;5.324;2023-05-20T05:10:14;13.45;;;5.20;;
57055;SDS011;42945;51.718;5.324;2023-05-20T05:16:02;10.02;;;4.40;;
57055;SDS011;42945;51.718;5.324;2023-05-20T05:21:50;13.90;;;4.88;;
57055;SDS011;42945;51.718;5.324;2023-05-20T05:27:38;15.70;;;5.05;;
57055;SDS011;42945;51.718;5.324;2023-05-20T05:33:26;13.40;;;5.10;;
57055;SDS011;42945;51.718;5.324;2023-05-20T05:39:16;9.30;;;4.63;;
57055;SDS011;42945;51.718;5.324;2023-05-20T05:45:04;7.78;;;4.50;;
57055;SDS011;42945;51.718;5.324;2023-05-20T05:54:49;9.50;;;4.40;;
57055;SDS011;42945;51.718;5.324;2023-05-20T06:00:37;9.00;;;4.72;;
57055;SDS011;42945;51.718;5.324;2023-05-20T06:06:26;12.60;;;4.68;;
57055;SDS011;42945;51.718;5.324;2023-05-20T06:12:14;9.88;;;4.68;;
57055;SDS011;42945;51.718;5.324;2023-05-20T06:18:02;8.93;;;4.82;;
57055;SDS011;42945;51.718;5.324;2023-05-20T06:23:51;6.63;;;4.38;;
57055;SDS011;42945;51.718;5.324;2023-05-20T06:29:38;10.98;;;4.43;;
57055;SDS011;42945;51.718;5.324;2023-05-20T06:35:27;7.65;;;4.00;;
57055;SDS011;42945;51.718;5.324;2023-05-20T06:41:15;7.30;;;4.32;;
57055;SDS011;42945;51.718;5.324;2023-05-20T06:47:02;9.27;;;4.30;;
57055;SDS011;42945;51.718;5.324;2023-05-20T06:56:46;7.70;;;3.65;;
57055;SDS011;42945;51.718;5.324;2023-05-20T07:02:35;6.50;;;3.95;;
57055;SDS011;42945;51.718;5.324;2023-05-20T07:08:22;6.50;;;3.50;;
57055;SDS011;42945;51.718;5.324;2023-05-20T07:14:11;6.25;;;3.47;;
57055;SDS011;42945;51.718;5.324;2023-05-20T07:20:02;6.85;;;3.58;;
57055;SDS011;42945;51.718;5.324;2023-05-20T07:25:52;6.85;;;3.78;;
57055;SDS011;42945;51.718;5.324;2023-05-20T07:31:43;8.27;;;3.08;;
57055;SDS011;42945;51.718;5.324;2023-05-20T07:37:32;6.17;;;2.70;;
57055;SDS011;42945;51.718;5.324;2023-05-20T07:43:20;5.65;;;3.15;;
57055;SDS011;42945;51.718;5.324;2023-05-20T07:49:08;6.68;;;3.05;;
57055;SDS011;42945;51.718;5.324;2023-05-20T07:58:54;3.92;;;2.50;;
57055;SDS011;42945;51.718;5.324;2023-05-20T08:04:47;5.57;;;2.50;;
57055;SDS011;42945;51.718;5.324;2023-05-20T08:10:35;6.30;;;2.60;;
57055;SDS011;42945;51.718;5.324;2023-05-20T08:16:24;5.65;;;2.80;;
57055;SDS011;42945;51.718;5.324;2023-05-20T08:22:17;4.57;;;2.55;;
57055;SDS011;42945;51.718;5.324;2023-05-20T08:28:04;7.68;;;2.80;;
57055;SDS011;42945;51.718;5.324;2023-05-20T08:33:54;7.55;;;2.85;;
57055;SDS011;42945;51.718;5.324;2023-05-20T08:39:43;4.95;;;2.40;;
57055;SDS011;42945;51.718;5.324;2023-05-20T08:45:33;8.68;;;2.95;;
57055;SDS011;42945;51.718;5.324;2023-05-20T08:51:25;9.40;;;3.10;;
57055;SDS011;42945;51.718;5.324;2023-05-20T09:01:16;8.85;;;3.40;;
57055;SDS011;42945;51.718;5.324;2023-05-20T09:07:05;7.13;;;2.83;;
57055;SDS011;42945;51.718;5.324;2023-05-20T09:12:54;4.68;;;2.60;;
57055;SDS011;42945;51.718;5.324;2023-05-20T09:18:42;6.13;;;2.72;;
57055;SDS011;42945;51.718;5.324;2023-05-20T09:24:30;6.70;;;2.43;;
57055;SDS011;42945;51.718;5.324;2023-05-20T09:30:19;4.70;;;2.65;;
57055;SDS011;42945;51.718;5.324;2023-05-20T09:36:09;6.30;;;2.30;;
57055;SDS011;42945;51.718;5.324;2023-05-20T09:47:58;7.25;;;2.10;;
57055;SDS011;42945;51.718;5.324;2023-05-20T09:53:48;4.10;;;2.53;;
57055;SDS011;42945;51.718;5.324;2023-05-20T10:03:40;5.63;;;2.50;;
57055;SDS011;42945;51.718;5.324;2023-05-20T10:09:36;3.63;;;2.13;;
57055;SDS011;42945;51.718;5.324;2023-05-20T10:21:58;6.38;;;2.22;;
57055;SDS011;42945;51.718;5.324;2023-05-20T10:28:04;2.70;;;1.90;;
57055;SDS011;42945;51.718;5.324;2023-05-20T10:33:55;5.03;;;2.17;;
57055;SDS011;42945;51.718;5.324;2023-05-20T10:39:46;5.37;;;1.80;;
57055;SDS011;42945;51.718;5.324;2023-05-20T10:45:34;8.50;;;2.20;;
57055;SDS011;42945;51.718;5.324;2023-05-20T10:51:23;3.70;;;1.90;;
57055;SDS011;42945;51.718;5.324;2023-05-20T10:57:15;4.97;;;1.85;;
57055;SDS011;42945;51.718;5.324;2023-05-20T11:03:05;10.52;;;2.10;;
57055;SDS011;42945;51.718;5.324;2023-05-20T11:08:54;5.93;;;1.98;;
57055;SDS011;42945;51.718;5.324;2023-05-20T11:14:42;6.30;;;2.35;;
57055;SDS011;42945;51.718;5.324;2023-05-20T11:20:31;6.63;;;2.50;;
57055;SDS011;42945;51.718;5.324;2023-05-20T11:26:22;6.60;;;2.25;;
57055;SDS011;42945;51.718;5.324;2023-05-20T11:32:12;4.25;;;1.95;;
57055;SDS011;42945;51.718;5.324;2023-05-20T11:38:00;4.17;;;2.23;;
57055;SDS011;42945;51.718;5.324;2023-05-20T11:43:56;4.10;;;2.53;;
57055;SDS011;42945;51.718;5.324;2023-05-20T11:49:47;5.03;;;2.37;;
57055;SDS011;42945;51.718;5.324;2023-05-20T11:55:49;4.37;;;1.83;;
57055;SDS011;42945;51.718;5.324;2023-05-20T12:05:38;5.03;;;2.50;;
57055;SDS011;42945;51.718;5.324;2023-05-20T12:11:28;7.25;;;2.38;;
57055;SDS011;42945;51.718;5.324;2023-05-20T12:17:16;4.10;;;2.70;;
57055;SDS011;42945;51.718;5.324;2023-05-20T12:23:04;4.17;;;2.10;;
57055;SDS011;42945;51.718;5.324;2023-05-20T12:28:52;3.97;;;2.23;;
57055;SDS011;42945;51.718;5.324;2023-05-20T12:34:41;4.00;;;1.87;;
57055;SDS011;42945;51.718;5.324;2023-05-20T12:40:30;4.05;;;1.60;;
57055;SDS011;42945;51.718;5.324;2023-05-20T12:46:25;2.42;;;1.58;;
57055;SDS011;42945;51.718;5.324;2023-05-20T12:52:13;6.68;;;2.10;;
57055;SDS011;42945;51.718;5.324;2023-05-20T12:58:04;2.58;;;2.00;;
57055;SDS011;42945;51.718;5.324;2023-05-20T13:07:56;6.00;;;2.30;;
57055;SDS011;42945;51.718;5.324;2023-05-20T13:13:44;5.15;;;2.13;;
57055;SDS011;42945;51.718;5.324;2023-05-20T13:19:32;3.65;;;1.90;;
57055;SDS011;42945;51.718;5.324;2023-05-20T13:25:21;2.60;;;2.00;;
57055;SDS011;42945;51.718;5.324;2023-05-20T13:31:08;4.55;;;2.45;;
57055;SDS011;42945;51.718;5.324;2023-05-20T13:36:57;6.90;;;1.98;;
57055;SDS011;42945;51.718;5.324;2023-05-20T13:42:45;5.00;;;1.90;;
57055;SDS011;42945;51.718;5.324;2023-05-20T13:48:33;3.45;;;1.85;;
57055;SDS011;42945;51.718;5.324;2023-05-20T13:54:23;5.25;;;2.05;;
57055;SDS011;42945;51.718;5.324;2023-05-20T14:00:11;3.08;;;1.70;;
57055;SDS011;42945;51.718;5.324;2023-05-20T14:09:54;3.70;;;2.30;;
57055;SDS011;42945;51.718;5.324;2023-05-20T14:15:42;5.40;;;1.88;;
57055;SDS011;42945;51.718;5.324;2023-05-20T14:21:30;5.20;;;1.83;;
57055;SDS011;42945;51.718;5.324;2023-05-20T14:27:19;4.15;;;1.90;;
57055;SDS011;42945;51.718;5.324;2023-05-20T14:33:33;6.55;;;2.05;;
57055;SDS011;42945;51.718;5.324;2023-05-20T14:39:21;4.47;;;1.80;;
57055;SDS011;42945;51.718;5.324;2023-05-20T14:45:09;4.30;;;1.80;;
57055;SDS011;42945;51.718;5.324;2023-05-20T14:50:58;3.95;;;1.38;;
57055;SDS011;42945;51.718;5.324;2023-05-20T14:56:46;2.00;;;1.60;;
57055;SDS011;42945;51.718;5.324;2023-05-20T15:02:33;4.88;;;2.30;;
57055;SDS011;42945;51.718;5.324;2023-05-20T15:12:22;2.90;;;2.10;;
57055;SDS011;42945;51.718;5.324;2023-05-20T15:18:11;5.35;;;2.30;;
57055;SDS011;42945;51.718;5.324;2023-05-20T15:24:01;8.02;;;2.25;;
57055;SDS011;42945;51.718;5.324;2023-05-20T15:29:48;5.30;;;1.97;;
57055;SDS011;42945;51.718;5.324;2023-05-20T15:35:36;3.25;;;2.00;;
57055;SDS011;42945;51.718;5.324;2023-05-20T15:41:25;3.38;;;1.85;;
57055;SDS011;42945;51.718;5.324;2023-05-20T15:47:13;4.43;;;1.60;;
57055;SDS011;42945;51.718;5.324;2023-05-20T15:53:06;4.15;;;1.80;;
57055;SDS011;42945;51.718;5.324;2023-05-20T15:58:56;3.85;;;1.60;;
57055;SDS011;42945;51.718;5.324;2023-05-20T16:04:45;4.10;;;1.50;;
57055;SDS011;42945;51.718;5.324;2023-05-20T16:14:29;8.57;;;1.73;;
57055;SDS011;42945;51.718;5.324;2023-05-20T16:20:17;4.70;;;2.00;;
57055;SDS011;42945;51.718;5.324;2023-05-20T16:26:05;8.13;;;2.03;;
57055;SDS011;42945;51.718;5.324;2023-05-20T16:31:53;5.75;;;1.45;;
57055;SDS011;42945;51.718;5.324;2023-05-20T16:37:41;4.28;;;1.67;;
57055;SDS011;42945;51.718;5.324;2023-05-20T16:43:30;2.67;;;1.50;;
57055;SDS011;42945;51.718;5.324;2023-05-20T16:49:18;8.27;;;1.75;;
57055;SDS011;42945;51.718;5.324;2023-05-20T16:55:07;3.45;;;1.38;;
57055;SDS011;42945;51.718;5.324;2023-05-20T17:00:56;5.80;;;3.55;;
57055;SDS011;42945;51.718;5.324;2023-05-20T17:06:44;4.47;;;1.48;;
57055;SDS011;42945;51.718;5.324;2023-05-20T17:16:29;2.67;;;1.75;;
57055;SDS011;42945;51.718;5.324;2023-05-20T17:22:17;3.47;;;1.70;;
57055;SDS011;42945;51.718;5.324;2023-05-20T17:28:05;4.60;;;1.40;;
57055;SDS011;42945;51.718;5.324;2023-05-20T17:33:54;2.88;;;1.48;;
57055;SDS011;42945;51.718;5.324;2023-05-20T17:39:43;2.30;;;1.40;;
57055;SDS011;42945;51.718;5.324;2023-05-20T17:45:31;2.47;;;1.48;;
57055;SDS011;42945;51.718;5.324;2023-05-20T17:51:19;5.60;;;2.30;;
57055;SDS011;42945;51.718;5.324;2023-05-20T17:57:08;2.20;;;1.30;;
57055;SDS011;42945;51.718;5.324;2023-05-20T18:02:57;5.93;;;2.30;;
57055;SDS011;42945;51.718;5.324;2023-05-20T18:08:46;5.10;;;1.70;;
57055;SDS011;42945;51.718;5.324;2023-05-20T18:18:29;4.82;;;1.80;;
57055;SDS011;42945;51.718;5.324;2023-05-20T18:24:17;2.85;;;1.27;;
57055;SDS011;42945;51.718;5.324;2023-05-20T18:30:06;3.67;;;1.30;;
57055;SDS011;42945;51.718;5.324;2023-05-20T18:35:56;2.67;;;1.50;;
57055;SDS011;42945;51.718;5.324;2023-05-20T18:41:45;7.22;;;1.77;;
57055;SDS011;42945;51.718;5.324;2023-05-20T18:47:34;4.77;;;1.50;;
57055;SDS011;42945;51.718;5.324;2023-05-20T18:53:22;4.17;;;1.77;;
57055;SDS011;42945;51.718;5.324;2023-05-20T18:59:11;3.75;;;1.92;;
57055;SDS011;42945;51.718;5.324;2023-05-20T19:04:58;6.90;;;2.07;;
57055;SDS011;42945;51.718;5.324;2023-05-20T19:10:48;9.75;;;1.92;;
57055;SDS011;42945;51.718;5.324;2023-05-20T19:20:31;3.20;;;1.95;;
57055;SDS011;42945;51.718;5.324;2023-05-20T19:26:20;3.03;;;1.70;;
57055;SDS011;42945;51.718;5.324;2023-05-20T19:32:10;4.90;;;2.15;;
57055;SDS011;42945;51.718;5.324;2023-05-20T19:37:58;5.40;;;2.10;;
57055;SDS011;42945;51.718;5.324;2023-05-20T19:43:47;4.50;;;2.03;;
57055;SDS011;42945;51.718;5.324;2023-05-20T19:49:36;2.20;;;1.60;;
57055;SDS011;42945;51.718;5.324;2023-05-20T19:55:24;5.15;;;2.13;;
57055;SDS011;42945;51.718;5.324;2023-05-20T20:01:12;2.72;;;2.17;;
57055;SDS011;42945;51.718;5.324;2023-05-20T20:07:03;6.03;;;1.87;;
57055;SDS011;42945;51.718;5.324;2023-05-20T20:12:54;5.03;;;2.05;;
57055;SDS011;42945;51.718;5.324;2023-05-20T20:22:37;8.32;;;2.08;;
57055;SDS011;42945;51.718;5.324;2023-05-20T20:28:24;6.50;;;2.10;;
57055;SDS011;42945;51.718;5.324;2023-05-20T20:34:13;6.90;;;2.58;;
57055;SDS011;42945;51.718;5.324;2023-05-20T20:40:02;7.50;;;2.70;;
57055;SDS011;42945;51.718;5.324;2023-05-20T20:45:59;4.60;;;2.20;;
57055;SDS011;42945;51.718;5.324;2023-05-20T20:51:48;5.17;;;2.37;;
57055;SDS011;42945;51.718;5.324;2023-05-20T20:57:37;3.88;;;1.83;;
57055;SDS011;42945;51.718;5.324;2023-05-20T21:03:25;3.28;;;1.80;;
57055;SDS011;42945;51.718;5.324;2023-05-20T21:09:13;5.88;;;2.33;;
57055;SDS011;42945;51.718;5.324;2023-05-20T21:15:02;6.38;;;2.33;;
57055;SDS011;42945;51.718;5.324;2023-05-20T21:17:28;3.38;;;2.47;;
57055;SDS011;42945;51.718;5.324;2023-05-20T21:23:17;3.63;;;2.30;;
57055;SDS011;42945;51.718;5.324;2023-05-20T21:29:07;4.78;;;2.30;;
57055;SDS011;42945;51.718;5.324;2023-05-20T21:34:56;3.50;;;2.13;;
57055;SDS011;42945;51.718;5.324;2023-05-20T21:40:43;9.80;;;2.30;;
57055;SDS011;42945;51.718;5.324;2023-05-20T21:46:33;5.55;;;2.33;;
57055;SDS011;42945;51.718;5.324;2023-05-20T21:52:20;4.05;;;2.38;;
57055;SDS011;42945;51.718;5.324;2023-05-20T21:58:09;10.85;;;2.45;;
57055;SDS011;42945;51.718;5.324;2023-05-20T22:03:57;4.38;;;2.40;;
57055;SDS011;42945;51.718;5.324;2023-05-20T22:09:46;6.38;;;2.45;;
57055;SDS011;42945;51.718;5.324;2023-05-20T22:15:34;4.75;;;2.42;;
57055;SDS011;42945;51.718;5.324;2023-05-20T22:25:24;9.73;;;3.03;;
57055;SDS011;42945;51.718;5.324;2023-05-20T22:31:12;7.45;;;3.03;;
57055;SDS011;42945;51.718;5.324;2023-05-20T22:37:00;5.70;;;2.78;;
57055;SDS011;42945;51.718;5.324;2023-05-20T22:42:49;8.87;;;3.03;;
57055;SDS011;42945;51.718;5.324;2023-05-20T22:48:37;6.88;;;2.88;;
57055;SDS011;42945;51.718;5.324;2023-05-20T22:54:27;5.00;;;2.70;;
57055;SDS011;42945;51.718;5.324;2023-05-20T23:00:16;4.97;;;3.17;;
57055;SDS011;42945;51.718;5.324;2023-05-20T23:06:06;5.65;;;3.13;;
57055;SDS011;42945;51.718;5.324;2023-05-20T23:11:54;9.68;;;2.97;;
57055;SDS011;42945;51.718;5.324;2023-05-20T23:17:42;6.32;;;3.38;;
57055;SDS011;42945;51.718;5.324;2023-05-20T23:23:31;8.27;;;2.90;;
57055;SDS011;42945;51.718;5.324;2023-05-20T23:29:19;5.32;;;2.95;;
57055;SDS011;42945;51.718;5.324;2023-05-20T23:35:09;8.40;;;3.55;;
57055;SDS011;42945;51.718;5.324;2023-05-20T23:40:57;5.47;;;3.20;;
57055;SDS011;42945;51.718;5.324;2023-05-20T23:46:46;7.90;;;3.25;;
57055;SDS011;42945;51.718;5.324;2023-05-20T23:52:35;8.60;;;3.80;;
57055;SDS011;42945;51.718;5.324;2023-05-20T23:58:22;7.45;;;3.58;;
